sensor_id;sensor_type;location;lat;lon;timestamp;P1;durP1;ratioP1;P2;durP2;ratioP2
75997;SDS011;64685;48.762;44.822;2023-02-28T00:04:06;55.40;;;24.70;;
75997;SDS011;64685;48.762;44.822;2023-02-28T00:09:11;51.05;;;24.85;;
75997;SDS011;64685;48.762;44.822;2023-02-28T00:14:13;54.22;;;25.08;;
75997;SDS011;64685;48.762;44.822;2023-02-28T00:19:16;47.20;;;23.13;;
75997;SDS011;64685;48.762;44.822;2023-02-28T00:24:18;46.53;;;21.98;;
75997;SDS011;64685;48.762;44.822;2023-02-28T00:29:21;48.72;;;21.85;;
75997;SDS011;64685;48.762;44.822;2023-02-28T00:34:23;48.47;;;22.90;;
75997;SDS011;64685;48.762;44.822;2023-02-28T00:39:27;45.22;;;20.02;;
75997;SDS011;64685;48.762;44.822;2023-02-28T00:44:30;43.95;;;20.92;;
75997;SDS011;64685;48.762;44.822;2023-02-28T00:49:32;44.30;;;21.40;;
75997;SDS011;64685;48.762;44.822;2023-02-28T00:54:36;55.88;;;23.33;;
75997;SDS011;64685;48.762;44.822;2023-02-28T00:59:38;48.58;;;23.17;;
75997;SDS011;64685;48.762;44.822;2023-02-28T01:04:41;47.78;;;22.02;;
75997;SDS011;64685;48.762;44.822;2023-02-28T01:09:43;43.72;;;20.42;;
75997;SDS011;64685;48.762;44.822;2023-02-28T01:14:46;47.58;;;19.60;;
75997;SDS011;64685;48.762;44.822;2023-02-28T01:19:48;47.63;;;19.48;;
75997;SDS011;64685;48.762;44.822;2023-02-28T01:24:51;41.38;;;17.92;;
75997;SDS011;64685;48.762;44.822;2023-02-28T01:29:53;54.75;;;20.83;;
75997;SDS011;64685;48.762;44.822;2023-02-28T01:34:56;60.35;;;22.15;;
75997;SDS011;64685;48.762;44.822;2023-02-28T01:39:58;62.35;;;21.20;;
75997;SDS011;64685;48.762;44.822;2023-02-28T01:45:03;49.17;;;16.73;;
75997;SDS011;64685;48.762;44.822;2023-02-28T01:50:23;41.80;;;15.63;;
75997;SDS011;64685;48.762;44.822;2023-02-28T01:55:29;50.75;;;19.10;;
75997;SDS011;64685;48.762;44.822;2023-02-28T02:00:34;50.38;;;17.45;;
75997;SDS011;64685;48.762;44.822;2023-02-28T02:05:38;63.40;;;23.70;;
75997;SDS011;64685;48.762;44.822;2023-02-28T02:10:52;43.42;;;16.10;;
75997;SDS011;64685;48.762;44.822;2023-02-28T02:42:40;44.00;;;17.58;;
75997;SDS011;64685;48.762;44.822;2023-02-28T02:47:50;31.48;;;11.30;;
75997;SDS011;64685;48.762;44.822;2023-02-28T02:52:55;31.90;;;10.73;;
75997;SDS011;64685;48.762;44.822;2023-02-28T02:58:03;35.45;;;12.95;;
75997;SDS011;64685;48.762;44.822;2023-02-28T03:03:09;36.47;;;12.68;;
75997;SDS011;64685;48.762;44.822;2023-02-28T03:08:14;31.20;;;10.93;;
75997;SDS011;64685;48.762;44.822;2023-02-28T03:13:37;35.33;;;12.32;;
75997;SDS011;64685;48.762;44.822;2023-02-28T03:29:26;36.90;;;13.32;;
75997;SDS011;64685;48.762;44.822;2023-02-28T03:34:39;39.65;;;12.25;;
75997;SDS011;64685;48.762;44.822;2023-02-28T03:39:59;28.52;;;10.80;;
75997;SDS011;64685;48.762;44.822;2023-02-28T03:45:10;42.47;;;15.35;;
75997;SDS011;64685;48.762;44.822;2023-02-28T03:50:19;34.15;;;12.05;;
75997;SDS011;64685;48.762;44.822;2023-02-28T03:55:39;27.27;;;10.35;;
75997;SDS011;64685;48.762;44.822;2023-02-28T04:00:46;44.40;;;14.90;;
75997;SDS011;64685;48.762;44.822;2023-02-28T04:05:53;35.15;;;12.18;;
75997;SDS011;64685;48.762;44.822;2023-02-28T04:10:59;29.38;;;11.13;;
75997;SDS011;64685;48.762;44.822;2023-02-28T04:16:07;44.38;;;17.02;;
75997;SDS011;64685;48.762;44.822;2023-02-28T04:21:22;33.00;;;9.30;;
75997;SDS011;64685;48.762;44.822;2023-02-28T04:26:30;29.02;;;8.90;;
75997;SDS011;64685;48.762;44.822;2023-02-28T04:31:33;34.80;;;9.50;;
75997;SDS011;64685;48.762;44.822;2023-02-28T04:36:35;33.97;;;10.25;;
75997;SDS011;64685;48.762;44.822;2023-02-28T04:41:38;31.50;;;12.98;;
75997;SDS011;64685;48.762;44.822;2023-02-28T04:46:41;43.63;;;13.32;;
75997;SDS011;64685;48.762;44.822;2023-02-28T04:51:44;24.85;;;8.45;;
75997;SDS011;64685;48.762;44.822;2023-02-28T04:56:47;53.38;;;18.75;;
75997;SDS011;64685;48.762;44.822;2023-02-28T05:01:51;51.88;;;18.20;;
75997;SDS011;64685;48.762;44.822;2023-02-28T05:06:54;22.75;;;8.40;;
75997;SDS011;64685;48.762;44.822;2023-02-28T05:11:57;21.98;;;8.98;;
75997;SDS011;64685;48.762;44.822;2023-02-28T05:16:59;26.45;;;7.60;;
75997;SDS011;64685;48.762;44.822;2023-02-28T05:22:02;25.55;;;7.55;;
75997;SDS011;64685;48.762;44.822;2023-02-28T05:27:05;24.05;;;8.10;;
75997;SDS011;64685;48.762;44.822;2023-02-28T05:32:11;18.00;;;7.18;;
75997;SDS011;64685;48.762;44.822;2023-02-28T05:37:14;13.25;;;4.13;;
75997;SDS011;64685;48.762;44.822;2023-02-28T05:42:17;17.95;;;6.15;;
75997;SDS011;64685;48.762;44.822;2023-02-28T05:47:20;16.65;;;6.75;;
75997;SDS011;64685;48.762;44.822;2023-02-28T05:52:22;16.23;;;4.40;;
75997;SDS011;64685;48.762;44.822;2023-02-28T05:57:26;10.80;;;3.90;;
75997;SDS011;64685;48.762;44.822;2023-02-28T06:02:31;12.68;;;5.00;;
75997;SDS011;64685;48.762;44.822;2023-02-28T06:07:34;13.95;;;4.40;;
75997;SDS011;64685;48.762;44.822;2023-02-28T06:12:37;15.45;;;6.38;;
75997;SDS011;64685;48.762;44.822;2023-02-28T06:17:40;15.48;;;5.70;;
75997;SDS011;64685;48.762;44.822;2023-02-28T06:22:44;14.63;;;4.88;;
75997;SDS011;64685;48.762;44.822;2023-02-28T06:27:46;11.50;;;4.15;;
75997;SDS011;64685;48.762;44.822;2023-02-28T06:32:50;15.18;;;4.88;;
75997;SDS011;64685;48.762;44.822;2023-02-28T06:37:53;11.82;;;4.68;;
75997;SDS011;64685;48.762;44.822;2023-02-28T06:42:56;12.15;;;5.00;;
75997;SDS011;64685;48.762;44.822;2023-02-28T06:47:59;12.25;;;4.72;;
75997;SDS011;64685;48.762;44.822;2023-02-28T06:53:02;9.95;;;3.53;;
75997;SDS011;64685;48.762;44.822;2023-02-28T06:58:04;8.20;;;3.60;;
75997;SDS011;64685;48.762;44.822;2023-02-28T07:03:16;12.85;;;4.60;;
75997;SDS011;64685;48.762;44.822;2023-02-28T07:08:20;11.18;;;4.32;;
75997;SDS011;64685;48.762;44.822;2023-02-28T07:13:22;10.95;;;4.15;;
75997;SDS011;64685;48.762;44.822;2023-02-28T07:18:25;14.73;;;5.90;;
75997;SDS011;64685;48.762;44.822;2023-02-28T07:23:28;14.88;;;6.38;;
75997;SDS011;64685;48.762;44.822;2023-02-28T07:28:31;11.27;;;4.45;;
75997;SDS011;64685;48.762;44.822;2023-02-28T07:33:33;12.38;;;5.03;;
75997;SDS011;64685;48.762;44.822;2023-02-28T07:38:36;12.38;;;5.38;;
75997;SDS011;64685;48.762;44.822;2023-02-28T07:43:39;8.35;;;3.50;;
75997;SDS011;64685;48.762;44.822;2023-02-28T07:48:41;9.55;;;3.72;;
75997;SDS011;64685;48.762;44.822;2023-02-28T07:53:44;11.90;;;4.50;;
75997;SDS011;64685;48.762;44.822;2023-02-28T07:58:47;9.35;;;3.60;;
75997;SDS011;64685;48.762;44.822;2023-02-28T08:03:49;10.43;;;4.68;;
75997;SDS011;64685;48.762;44.822;2023-02-28T08:08:54;9.85;;;3.58;;
75997;SDS011;64685;48.762;44.822;2023-02-28T08:13:58;9.45;;;3.85;;
75997;SDS011;64685;48.762;44.822;2023-02-28T08:19:01;10.23;;;4.50;;
75997;SDS011;64685;48.762;44.822;2023-02-28T08:24:04;9.27;;;4.60;;
75997;SDS011;64685;48.762;44.822;2023-02-28T08:29:07;11.35;;;4.38;;
75997;SDS011;64685;48.762;44.822;2023-02-28T08:34:10;12.02;;;4.57;;
75997;SDS011;64685;48.762;44.822;2023-02-28T08:39:14;10.02;;;3.95;;
75997;SDS011;64685;48.762;44.822;2023-02-28T08:44:16;11.02;;;4.75;;
75997;SDS011;64685;48.762;44.822;2023-02-28T08:49:19;11.63;;;5.07;;
75997;SDS011;64685;48.762;44.822;2023-02-28T08:54:21;10.65;;;4.60;;
75997;SDS011;64685;48.762;44.822;2023-02-28T08:59:24;14.40;;;4.88;;
75997;SDS011;64685;48.762;44.822;2023-02-28T09:04:28;12.82;;;5.15;;
75997;SDS011;64685;48.762;44.822;2023-02-28T09:09:32;12.15;;;6.00;;
75997;SDS011;64685;48.762;44.822;2023-02-28T09:14:35;12.25;;;5.75;;
75997;SDS011;64685;48.762;44.822;2023-02-28T09:19:37;17.95;;;6.78;;
75997;SDS011;64685;48.762;44.822;2023-02-28T09:24:40;15.63;;;7.40;;
75997;SDS011;64685;48.762;44.822;2023-02-28T09:29:43;17.17;;;7.45;;
75997;SDS011;64685;48.762;44.822;2023-02-28T09:34:45;11.07;;;4.35;;
75997;SDS011;64685;48.762;44.822;2023-02-28T09:39:48;11.00;;;4.43;;
75997;SDS011;64685;48.762;44.822;2023-02-28T09:44:51;11.57;;;5.03;;
75997;SDS011;64685;48.762;44.822;2023-02-28T09:49:53;10.82;;;4.85;;
75997;SDS011;64685;48.762;44.822;2023-02-28T10:00:39;13.45;;;4.82;;
75997;SDS011;64685;48.762;44.822;2023-02-28T10:05:52;11.93;;;5.22;;
75997;SDS011;64685;48.762;44.822;2023-02-28T10:11:01;11.55;;;5.32;;
75997;SDS011;64685;48.762;44.822;2023-02-28T10:16:11;12.95;;;5.45;;
75997;SDS011;64685;48.762;44.822;2023-02-28T10:21:26;15.05;;;5.97;;
75997;SDS011;64685;48.762;44.822;2023-02-28T10:26:32;19.08;;;7.00;;
75997;SDS011;64685;48.762;44.822;2023-02-28T10:31:35;15.73;;;7.18;;
75997;SDS011;64685;48.762;44.822;2023-02-28T10:36:37;17.85;;;7.40;;
75997;SDS011;64685;48.762;44.822;2023-02-28T10:41:42;15.18;;;7.43;;
75997;SDS011;64685;48.762;44.822;2023-02-28T10:46:45;11.77;;;5.10;;
75997;SDS011;64685;48.762;44.822;2023-02-28T10:51:49;12.30;;;5.82;;
75997;SDS011;64685;48.762;44.822;2023-02-28T11:02:30;14.23;;;5.68;;
75997;SDS011;64685;48.762;44.822;2023-02-28T11:07:40;13.48;;;5.90;;
75997;SDS011;64685;48.762;44.822;2023-02-28T11:12:57;16.33;;;6.20;;
75997;SDS011;64685;48.762;44.822;2023-02-28T11:18:14;15.40;;;7.00;;
75997;SDS011;64685;48.762;44.822;2023-02-28T11:23:36;16.20;;;7.25;;
75997;SDS011;64685;48.762;44.822;2023-02-28T11:28:43;13.65;;;5.15;;
75997;SDS011;64685;48.762;44.822;2023-02-28T11:38:56;12.57;;;5.18;;
75997;SDS011;64685;48.762;44.822;2023-02-28T11:44:22;11.48;;;3.97;;
75997;SDS011;64685;48.762;44.822;2023-02-28T11:49:40;13.60;;;4.55;;
75997;SDS011;64685;48.762;44.822;2023-02-28T11:54:55;12.07;;;4.60;;
75997;SDS011;64685;48.762;44.822;2023-02-28T12:00:25;12.65;;;4.97;;
75997;SDS011;64685;48.762;44.822;2023-02-28T12:05:54;11.05;;;4.68;;
75997;SDS011;64685;48.762;44.822;2023-02-28T12:11:13;9.90;;;4.35;;
75997;SDS011;64685;48.762;44.822;2023-02-28T12:16:34;10.95;;;4.40;;
75997;SDS011;64685;48.762;44.822;2023-02-28T12:27:12;9.52;;;3.28;;
75997;SDS011;64685;48.762;44.822;2023-02-28T12:32:27;10.20;;;3.28;;
75997;SDS011;64685;48.762;44.822;2023-02-28T12:37:38;8.30;;;3.20;;
75997;SDS011;64685;48.762;44.822;2023-02-28T12:42:51;11.77;;;3.50;;
75997;SDS011;64685;48.762;44.822;2023-02-28T12:48:00;10.82;;;3.78;;
75997;SDS011;64685;48.762;44.822;2023-02-28T12:53:09;11.38;;;4.50;;
75997;SDS011;64685;48.762;44.822;2023-02-28T12:58:20;11.40;;;4.97;;
75997;SDS011;64685;48.762;44.822;2023-02-28T13:03:43;11.40;;;5.63;;
75997;SDS011;64685;48.762;44.822;2023-02-28T13:19:18;10.05;;;4.10;;
75997;SDS011;64685;48.762;44.822;2023-02-28T13:24:37;10.23;;;3.90;;
75997;SDS011;64685;48.762;44.822;2023-02-28T13:29:40;10.20;;;4.35;;
75997;SDS011;64685;48.762;44.822;2023-02-28T13:39:52;12.05;;;5.25;;
75997;SDS011;64685;48.762;44.822;2023-02-28T13:50:22;13.38;;;4.88;;
75997;SDS011;64685;48.762;44.822;2023-02-28T14:11:33;15.23;;;5.60;;
75997;SDS011;64685;48.762;44.822;2023-02-28T14:16:43;13.50;;;5.75;;
75997;SDS011;64685;48.762;44.822;2023-02-28T14:32:51;11.75;;;4.72;;
75997;SDS011;64685;48.762;44.822;2023-02-28T14:38:04;11.60;;;5.30;;
75997;SDS011;64685;48.762;44.822;2023-02-28T14:43:19;11.38;;;5.05;;
75997;SDS011;64685;48.762;44.822;2023-02-28T14:48:24;14.65;;;6.35;;
75997;SDS011;64685;48.762;44.822;2023-02-28T14:53:29;11.98;;;5.18;;
75997;SDS011;64685;48.762;44.822;2023-02-28T14:58:37;17.05;;;6.47;;
75997;SDS011;64685;48.762;44.822;2023-02-28T15:03:39;13.32;;;5.80;;
75997;SDS011;64685;48.762;44.822;2023-02-28T15:08:44;13.52;;;6.45;;
75997;SDS011;64685;48.762;44.822;2023-02-28T15:13:54;14.98;;;6.32;;
75997;SDS011;64685;48.762;44.822;2023-02-28T15:19:00;17.70;;;6.63;;
75997;SDS011;64685;48.762;44.822;2023-02-28T15:24:10;18.65;;;7.43;;
75997;SDS011;64685;48.762;44.822;2023-02-28T15:29:26;16.10;;;6.88;;
75997;SDS011;64685;48.762;44.822;2023-02-28T15:39:45;14.25;;;6.03;;
75997;SDS011;64685;48.762;44.822;2023-02-28T15:44:48;14.73;;;6.00;;
75997;SDS011;64685;48.762;44.822;2023-02-28T15:49:58;16.83;;;6.75;;
75997;SDS011;64685;48.762;44.822;2023-02-28T15:55:11;14.85;;;6.32;;
75997;SDS011;64685;48.762;44.822;2023-02-28T16:00:15;17.10;;;6.80;;
75997;SDS011;64685;48.762;44.822;2023-02-28T16:05:25;18.20;;;7.38;;
75997;SDS011;64685;48.762;44.822;2023-02-28T16:10:34;15.82;;;7.53;;
75997;SDS011;64685;48.762;44.822;2023-02-28T16:15:37;18.73;;;7.95;;
75997;SDS011;64685;48.762;44.822;2023-02-28T16:20:44;17.05;;;7.50;;
75997;SDS011;64685;48.762;44.822;2023-02-28T16:25:47;16.40;;;7.20;;
75997;SDS011;64685;48.762;44.822;2023-02-28T16:30:52;19.35;;;7.70;;
75997;SDS011;64685;48.762;44.822;2023-02-28T16:35:55;20.33;;;7.95;;
75997;SDS011;64685;48.762;44.822;2023-02-28T16:40:58;19.63;;;7.60;;
75997;SDS011;64685;48.762;44.822;2023-02-28T16:46:02;18.50;;;7.90;;
75997;SDS011;64685;48.762;44.822;2023-02-28T16:51:06;23.85;;;8.23;;
75997;SDS011;64685;48.762;44.822;2023-02-28T16:56:19;17.75;;;7.65;;
75997;SDS011;64685;48.762;44.822;2023-02-28T17:01:24;18.48;;;6.95;;
75997;SDS011;64685;48.762;44.822;2023-02-28T17:11:32;18.23;;;7.38;;
75997;SDS011;64685;48.762;44.822;2023-02-28T17:16:35;20.50;;;7.82;;
75997;SDS011;64685;48.762;44.822;2023-02-28T17:21:44;18.42;;;7.10;;
75997;SDS011;64685;48.762;44.822;2023-02-28T17:26:46;19.67;;;8.02;;
75997;SDS011;64685;48.762;44.822;2023-02-28T17:31:49;19.73;;;7.50;;
75997;SDS011;64685;48.762;44.822;2023-02-28T17:36:51;18.90;;;7.85;;
75997;SDS011;64685;48.762;44.822;2023-02-28T17:41:55;14.13;;;5.97;;
75997;SDS011;64685;48.762;44.822;2023-02-28T17:46:58;17.83;;;6.80;;
75997;SDS011;64685;48.762;44.822;2023-02-28T17:52:01;16.75;;;6.72;;
75997;SDS011;64685;48.762;44.822;2023-02-28T17:57:03;16.23;;;7.47;;
75997;SDS011;64685;48.762;44.822;2023-02-28T18:02:06;17.63;;;7.07;;
75997;SDS011;64685;48.762;44.822;2023-02-28T18:07:09;16.75;;;7.05;;
75997;SDS011;64685;48.762;44.822;2023-02-28T18:12:13;18.65;;;6.32;;
75997;SDS011;64685;48.762;44.822;2023-02-28T18:17:16;18.05;;;7.65;;
75997;SDS011;64685;48.762;44.822;2023-02-28T18:22:18;15.60;;;7.05;;
75997;SDS011;64685;48.762;44.822;2023-02-28T18:27:21;15.00;;;6.50;;
75997;SDS011;64685;48.762;44.822;2023-02-28T18:32:23;15.90;;;6.32;;
75997;SDS011;64685;48.762;44.822;2023-02-28T18:37:26;12.98;;;5.15;;
75997;SDS011;64685;48.762;44.822;2023-02-28T18:42:28;12.60;;;4.68;;
75997;SDS011;64685;48.762;44.822;2023-02-28T18:47:31;10.93;;;4.68;;
75997;SDS011;64685;48.762;44.822;2023-02-28T18:52:37;15.50;;;5.57;;
75997;SDS011;64685;48.762;44.822;2023-02-28T18:57:40;11.43;;;4.40;;
75997;SDS011;64685;48.762;44.822;2023-02-28T19:02:42;10.88;;;4.85;;
75997;SDS011;64685;48.762;44.822;2023-02-28T19:07:45;10.25;;;4.00;;
75997;SDS011;64685;48.762;44.822;2023-02-28T19:12:47;10.68;;;4.03;;
75997;SDS011;64685;48.762;44.822;2023-02-28T19:17:50;12.30;;;4.78;;
75997;SDS011;64685;48.762;44.822;2023-02-28T19:22:52;11.27;;;4.32;;
75997;SDS011;64685;48.762;44.822;2023-02-28T19:27:55;10.10;;;4.55;;
75997;SDS011;64685;48.762;44.822;2023-02-28T19:32:57;9.85;;;4.18;;
75997;SDS011;64685;48.762;44.822;2023-02-28T19:38:00;9.93;;;4.57;;
75997;SDS011;64685;48.762;44.822;2023-02-28T19:43:02;9.85;;;4.38;;
75997;SDS011;64685;48.762;44.822;2023-02-28T19:48:06;11.18;;;4.78;;
75997;SDS011;64685;48.762;44.822;2023-02-28T19:53:10;11.02;;;4.22;;
75997;SDS011;64685;48.762;44.822;2023-02-28T19:58:13;8.50;;;3.92;;
75997;SDS011;64685;48.762;44.822;2023-02-28T20:03:15;11.98;;;4.70;;
75997;SDS011;64685;48.762;44.822;2023-02-28T20:08:19;11.70;;;5.20;;
75997;SDS011;64685;48.762;44.822;2023-02-28T20:13:21;12.30;;;4.25;;
75997;SDS011;64685;48.762;44.822;2023-02-28T20:18:29;13.00;;;5.80;;
75997;SDS011;64685;48.762;44.822;2023-02-28T20:23:31;11.85;;;4.50;;
75997;SDS011;64685;48.762;44.822;2023-02-28T20:28:33;11.52;;;4.90;;
75997;SDS011;64685;48.762;44.822;2023-02-28T20:33:36;11.15;;;5.30;;
75997;SDS011;64685;48.762;44.822;2023-02-28T20:38:39;11.65;;;5.47;;
75997;SDS011;64685;48.762;44.822;2023-02-28T20:43:42;12.10;;;5.32;;
75997;SDS011;64685;48.762;44.822;2023-02-28T20:48:45;11.45;;;4.90;;
75997;SDS011;64685;48.762;44.822;2023-02-28T20:53:48;13.35;;;5.82;;
75997;SDS011;64685;48.762;44.822;2023-02-28T20:58:51;15.13;;;5.45;;
75997;SDS011;64685;48.762;44.822;2023-02-28T21:03:58;14.30;;;6.00;;
75997;SDS011;64685;48.762;44.822;2023-02-28T21:09:06;14.07;;;5.70;;
75997;SDS011;64685;48.762;44.822;2023-02-28T21:14:11;16.65;;;6.25;;
75997;SDS011;64685;48.762;44.822;2023-02-28T21:19:15;15.57;;;7.22;;
75997;SDS011;64685;48.762;44.822;2023-02-28T21:24:19;19.05;;;7.43;;
75997;SDS011;64685;48.762;44.822;2023-02-28T21:29:22;13.88;;;5.38;;
75997;SDS011;64685;48.762;44.822;2023-02-28T21:34:24;12.10;;;6.18;;
75997;SDS011;64685;48.762;44.822;2023-02-28T21:39:29;16.48;;;7.15;;
75997;SDS011;64685;48.762;44.822;2023-02-28T21:44:31;17.05;;;6.60;;
75997;SDS011;64685;48.762;44.822;2023-02-28T21:49:35;14.25;;;6.18;;
75997;SDS011;64685;48.762;44.822;2023-02-28T21:54:39;14.88;;;4.93;;
75997;SDS011;64685;48.762;44.822;2023-02-28T21:59:42;15.18;;;6.18;;
75997;SDS011;64685;48.762;44.822;2023-02-28T22:04:44;18.23;;;6.88;;
75997;SDS011;64685;48.762;44.822;2023-02-28T22:09:47;16.90;;;6.43;;
75997;SDS011;64685;48.762;44.822;2023-02-28T22:14:49;13.93;;;5.70;;
75997;SDS011;64685;48.762;44.822;2023-02-28T22:19:52;16.70;;;5.72;;
75997;SDS011;64685;48.762;44.822;2023-02-28T22:24:55;15.07;;;5.72;;
75997;SDS011;64685;48.762;44.822;2023-02-28T22:29:58;17.77;;;6.18;;
75997;SDS011;64685;48.762;44.822;2023-02-28T22:35:00;15.27;;;5.63;;
75997;SDS011;64685;48.762;44.822;2023-02-28T22:40:04;13.73;;;5.45;;
75997;SDS011;64685;48.762;44.822;2023-02-28T22:45:07;16.58;;;6.47;;
75997;SDS011;64685;48.762;44.822;2023-02-28T22:50:10;14.23;;;6.07;;
75997;SDS011;64685;48.762;44.822;2023-02-28T22:55:12;16.42;;;6.22;;
75997;SDS011;64685;48.762;44.822;2023-02-28T23:00:15;14.55;;;6.22;;
75997;SDS011;64685;48.762;44.822;2023-02-28T23:05:18;17.65;;;7.28;;
75997;SDS011;64685;48.762;44.822;2023-02-28T23:10:33;19.10;;;6.18;;
75997;SDS011;64685;48.762;44.822;2023-02-28T23:15:37;15.57;;;5.75;;
75997;SDS011;64685;48.762;44.822;2023-02-28T23:20:41;17.23;;;6.15;;
75997;SDS011;64685;48.762;44.822;2023-02-28T23:25:43;15.60;;;5.95;;
75997;SDS011;64685;48.762;44.822;2023-02-28T23:30:46;15.60;;;5.45;;
75997;SDS011;64685;48.762;44.822;2023-02-28T23:35:49;16.95;;;6.78;;
75997;SDS011;64685;48.762;44.822;2023-02-28T23:40:51;16.25;;;6.53;;
75997;SDS011;64685;48.762;44.822;2023-02-28T23:45:54;16.02;;;7.13;;
75997;SDS011;64685;48.762;44.822;2023-02-28T23:51:01;17.40;;;6.32;;
75997;SDS011;64685;48.762;44.822;2023-02-28T23:56:10;13.73;;;5.82;;
